Overview Statistics Trail Chart Weather Telemetry Raw packets
 

This is the latest recevied weather packets stored in our database for station/object F5TND-14. If no packets are shown the sender has not sent any weather packets the latest 10 day(s).

<< 51 52 53 54 55 56 57 >>
Time Temp. Humidity Pressure Rain* Wind** Luminosity Snow
1787777562 24.44° C 62% 1007.8 hPa - - - -
1787776962 23.89° C 62% 1008.2 hPa - - - -
1787776360 23.89° C 63% 1009.1 hPa - - - -
1787775761 23.89° C 63% 1009.5 hPa - - - -
1787775157 23.89° C 64% 1008.9 hPa - - - -
1787773954 22.78° C 69% 1011 hPa - - - -
1787773354 23.33° C 67% 1010.2 hPa - - - -
1787772754 22.22° C 71% 1007.1 hPa - - - -
1787772529 22.78° C 69% 1006.6 hPa - - - -
1787771929 22.78° C 68% 1006.7 hPa - - - -
1787771331 22.22° C 70% 1007 hPa - - - -
1787770729 22.78° C 70% 1006.6 hPa - - - -
1787770129 22.78° C 69% 1006.9 hPa - - - -
1787769541 23.33° C 65% 1007 hPa - - - -
1787768925 23.89° C 62% 1007 hPa - - - -
1787768325 25° C 60% 1007.1 hPa - - - -
1787767734 25° C 64% 1007.4 hPa - - - -
1787767125 25° C 68% 1008.3 hPa - - - -
1787766529 23.89° C 70% 1007.5 hPa - - - -
1787765928 22.78° C 73% 1008 hPa - - - -
1787763175 26.67° C 60% 1006 hPa - - - -
1787762575 26.11° C 63% 1006.7 hPa - - - -
1787761974 30.56° C 38% 1006.5 hPa - - - -
1787761384 30° C 38% 1006.3 hPa - - - -
1787760773 30° C 40% 1006.6 hPa - - - -

* Rain since midnight (hover to see other rain measurements)
** Current wind speed in m/s (hover to see current wind gust speed)